Baku, Azerbaijan
Current Conditions -  °F | °C
As of 3:00 PM on Friday 24 Oct 2014 (Local Time) from UBBB Reporting Station
Clear Clear  
Wind Chill: 66°   Ceiling: Unl
Heat Index: 66°   Visibility: 6mi
Dew Point: 54°   Wind: 24mph
Humidity: 64%   Direction: 340°NNW
Pressure: 29.97"   Gusts: 36mph
Location:  40.39°N, 49.86°E
Report Text: UBBB 241000Z 34021G31KT CAVOK 19/12 Q1015 88CLRD70NOSIG
Loading
Personal Weather Stations






























Interactive Weather Map
Tropical Storm Tracking
New forecast layout! Learn more

10-Day Weather Forecast

Advertisements
Track Severe Weather on mobile